createdAt,value
2019-02-17T00:02:20.326Z,99.90
2019-02-17T00:04:47.168Z,99.90
2019-02-17T00:07:14.057Z,99.90
2019-02-17T00:09:40.908Z,99.90
2019-02-17T00:12:07.697Z,99.90
2019-02-17T00:14:34.850Z,99.90
2019-02-17T00:17:01.998Z,99.90
2019-02-17T00:19:28.842Z,99.90
2019-02-17T00:21:55.993Z,99.90
2019-02-17T00:24:22.835Z,99.90
2019-02-17T00:26:49.678Z,99.90
2019-02-17T00:29:16.829Z,99.90
2019-02-17T00:31:43.672Z,99.90
2019-02-17T00:34:10.517Z,99.90
2019-02-17T00:36:37.666Z,99.90
2019-02-17T00:39:05.124Z,99.90
2019-02-17T00:41:32.284Z,99.90
2019-02-17T00:43:59.426Z,99.90
2019-02-17T00:46:26.270Z,99.90
2019-02-17T00:48:53.111Z,99.90
2019-02-17T00:51:20.262Z,99.90
2019-02-17T00:53:47.110Z,99.90
2019-02-17T00:56:14.258Z,99.90
2019-02-17T00:58:41.155Z,99.90
2019-02-17T01:01:08.203Z,99.90
2019-02-17T01:03:35.097Z,99.90
2019-02-17T01:06:01.941Z,99.90
2019-02-17T01:08:28.832Z,99.90
2019-02-17T01:10:55.705Z,99.90
2019-02-17T01:13:22.517Z,99.90
2019-02-17T01:15:49.362Z,99.90
2019-02-17T01:18:16.463Z,99.90
2019-02-17T01:20:43.309Z,99.90
2019-02-17T01:23:10.457Z,99.90
2019-02-17T01:25:37.300Z,99.90
2019-02-17T01:28:04.148Z,99.90
2019-02-17T01:30:31.032Z,99.90
2019-02-17T01:45:21.581Z,99.90
2019-02-17T01:47:48.416Z,99.90
2019-02-17T01:50:15.569Z,99.90
2019-02-17T01:52:42.719Z,99.90
2019-02-17T01:55:09.561Z,99.90
2019-02-17T01:57:36.406Z,99.90
2019-02-17T02:00:08.772Z,99.90
2019-02-17T02:02:35.619Z,99.90
2019-02-17T02:05:02.460Z,99.90
2019-02-17T02:07:29.634Z,99.90
2019-02-17T02:09:57.045Z,99.90
2019-02-17T02:12:23.912Z,99.90
2019-02-17T02:14:51.063Z,99.90
2019-02-17T02:17:18.212Z,99.90
2019-02-17T02:19:45.054Z,99.90
2019-02-17T02:22:12.212Z,99.90
2019-02-17T02:24:39.049Z,99.90
2019-02-17T02:27:05.893Z,99.90
2019-02-17T02:29:40.736Z,99.90
2019-02-17T02:32:01.429Z,99.90
2019-02-17T02:34:28.266Z,99.90
2019-02-17T02:36:55.415Z,99.90
2019-02-17T02:39:22.265Z,99.90
2019-02-17T02:41:49.157Z,99.90
2019-02-17T02:44:15.998Z,99.90
2019-02-17T02:46:42.788Z,99.90
2019-02-17T02:49:09.938Z,99.90
2019-02-17T02:51:36.781Z,99.90
2019-02-17T06:34:53.012Z,99.90
2019-02-17T06:37:20.162Z,99.90
2019-02-17T06:39:47.005Z,99.90
2019-02-17T06:42:13.846Z,99.90
2019-02-17T06:44:40.999Z,99.90
2019-02-17T06:47:09.683Z,99.90
2019-02-17T06:49:37.143Z,99.90
2019-02-17T06:52:03.986Z,99.90
2019-02-17T06:54:31.135Z,99.90
2019-02-17T06:57:00.130Z,99.90
2019-02-17T06:59:27.279Z,99.90
2019-02-17T07:01:55.352Z,99.90
2019-02-17T07:04:24.666Z,99.90
2019-02-17T07:06:57.971Z,99.90
2019-02-17T07:09:24.790Z,99.90
2019-02-17T07:11:53.783Z,99.90
2019-02-17T07:14:22.470Z,99.90
2019-02-17T07:16:49.316Z,99.90
2019-02-17T07:19:18.001Z,99.90
2019-02-17T07:21:46.687Z,99.90
2019-02-17T07:24:13.530Z,99.90
2019-02-17T07:26:40.681Z,99.90
2019-02-17T07:29:07.524Z,99.90
2019-02-17T07:31:35.274Z,99.90
2019-02-17T07:34:02.439Z,99.90
2019-02-17T07:36:29.283Z,99.90
2019-02-17T07:38:56.126Z,99.90
2019-02-17T07:41:23.276Z,99.90
2019-02-17T07:43:50.119Z,99.90
2019-02-17T07:46:16.963Z,99.90
2019-02-17T07:48:44.187Z,99.90
2019-02-17T07:51:11.309Z,99.90
2019-02-17T07:53:38.157Z,99.90
2019-02-17T07:56:05.258Z,99.90
2019-02-17T07:58:32.103Z,99.90
2019-02-17T08:00:59.252Z,99.90
2019-02-17T08:03:26.402Z,99.90
2019-02-17T08:05:53.246Z,99.90
2019-02-17T08:08:20.398Z,99.90
2019-02-17T08:10:47.239Z,99.90
2019-02-17T08:13:14.087Z,99.90
2019-02-17T08:15:41.234Z,99.90
2019-02-17T08:18:08.386Z,99.90
2019-02-17T08:20:37.016Z,99.90
2019-02-17T08:23:03.890Z,99.90
2019-02-17T08:25:30.757Z,99.90
2019-02-17T08:27:57.910Z,99.90
2019-02-17T08:30:24.751Z,99.90
2019-02-17T08:32:51.902Z,99.90
2019-02-17T08:35:18.797Z,99.90
2019-02-17T08:37:45.600Z,99.90
2019-02-17T08:40:12.484Z,99.90
2019-02-17T08:42:39.356Z,99.90
2019-02-17T08:45:07.961Z,99.90
2019-02-17T08:47:34.853Z,99.90
2019-02-17T08:50:01.956Z,99.90
2019-02-17T08:52:28.805Z,99.90
2019-02-17T08:54:56.870Z,99.90
2019-02-17T11:19:51.348Z,99.90
2019-02-17T11:22:23.122Z,90.70
2019-02-17T11:24:46.887Z,92.80
2019-02-17T11:27:14.028Z,94.50
2019-02-17T11:29:40.944Z,95.40
2019-02-17T11:32:08.024Z,94.60
2019-02-17T11:34:36.140Z,94.40
2019-02-17T11:37:03.870Z,94.80
2019-02-17T11:39:31.069Z,94.80
2019-02-17T11:41:58.128Z,95.60
2019-02-17T11:44:26.212Z,95.60
2019-02-17T11:46:53.590Z,95.50
2019-02-17T11:49:21.336Z,94.80
2019-02-17T11:51:48.878Z,94.80
2019-02-17T11:54:16.376Z,95.20
2019-02-17T11:56:43.333Z,95.00
2019-02-17T11:59:10.370Z,95.50
2019-02-17T12:01:37.209Z,96.10
2019-02-17T12:04:04.055Z,97.10
2019-02-17T12:06:31.100Z,97.10
2019-02-17T12:08:58.047Z,96.50
2019-02-17T12:11:24.892Z,97.00
2019-02-17T12:13:51.781Z,96.50
2019-02-17T12:16:18.721Z,96.90
2019-02-17T12:18:46.040Z,96.80
2019-02-17T12:21:16.286Z,96.40
2019-02-17T12:23:44.942Z,96.30
2019-02-17T12:26:13.627Z,94.80
2019-02-17T12:28:45.221Z,94.80
2019-02-17T12:31:14.073Z,94.60
2019-02-17T12:33:41.223Z,93.30
2019-02-17T12:36:08.990Z,92.90
2019-02-17T12:38:37.066Z,90.90
2019-02-17T12:41:04.574Z,90.00
2019-02-17T12:43:31.670Z,89.80
2019-02-17T12:45:58.458Z,88.30
2019-02-17T12:48:25.356Z,86.40
2019-02-17T12:50:52.251Z,78.50
2019-02-17T12:53:19.089Z,78.00
2019-02-17T12:55:45.886Z,75.20
2019-02-17T13:12:58.091Z,78.00
2019-02-17T13:27:42.531Z,71.80
2019-02-17T13:30:21.354Z,59.60
2019-02-17T13:32:49.984Z,58.40
2019-02-17T14:22:11.484Z,59.30
2019-02-17T14:27:13.465Z,43.30
2019-02-17T14:44:25.673Z,37.80
2019-02-17T14:46:56.158Z,52.20
2019-02-17T14:49:26.133Z,54.50
2019-02-17T14:51:55.980Z,52.00
2019-02-17T14:56:50.024Z,50.90
2019-02-17T14:59:16.868Z,59.50
2019-02-17T15:01:43.759Z,58.50
2019-02-17T15:04:10.554Z,56.10
2019-02-17T15:06:37.398Z,57.30
2019-02-17T15:09:06.361Z,52.20
2019-02-17T15:11:33.235Z,53.70
2019-02-17T15:14:00.078Z,55.30
2019-02-17T15:16:26.969Z,55.40
2019-02-17T15:18:53.765Z,55.00
2019-02-17T15:21:21.224Z,54.10
2019-02-17T15:23:48.343Z,55.70
2019-02-17T15:26:15.216Z,54.20
2019-02-17T15:28:50.852Z,53.90
2019-02-17T15:31:15.713Z,55.60
2019-02-17T15:33:42.817Z,52.00
2019-02-17T15:36:11.498Z,53.90
2019-02-17T15:38:40.492Z,53.10
2019-02-17T15:41:07.645Z,54.50
2019-02-17T15:43:39.709Z,55.70
2019-02-17T15:46:06.859Z,56.70
2019-02-17T15:48:36.469Z,54.40
2019-02-17T15:51:06.505Z,53.90
2019-02-17T15:53:31.999Z,55.80
2019-02-17T15:55:58.841Z,56.60
2019-02-17T15:58:28.761Z,51.00
2019-02-17T16:00:55.600Z,48.90
2019-02-17T16:03:25.253Z,51.80
2019-02-17T16:05:52.372Z,54.30
2019-02-17T16:08:20.776Z,59.00
2019-02-17T16:10:47.888Z,60.80
2019-02-17T16:15:44.034Z,56.80
2019-02-17T16:18:10.930Z,68.00
2019-02-17T16:20:42.327Z,75.00
2019-02-17T16:23:09.479Z,67.90
2019-02-17T16:32:58.081Z,66.10
2019-02-17T16:35:24.974Z,63.50
2019-02-17T16:37:51.778Z,65.00
2019-02-17T16:40:19.866Z,65.40
2019-02-17T16:42:49.447Z,66.20
2019-02-17T16:45:16.602Z,66.00
2019-02-17T16:47:45.292Z,67.90
2019-02-17T16:50:18.887Z,68.80
2019-02-17T16:52:46.039Z,69.60
2019-02-17T16:55:12.881Z,73.90
2019-02-17T17:05:09.671Z,81.10
2019-02-17T17:07:36.621Z,90.40
2019-02-17T17:10:04.307Z,90.80
2019-02-17T17:12:31.229Z,84.20
2019-02-17T17:14:58.381Z,83.40
2019-02-17T17:17:25.224Z,82.20
2019-02-17T17:19:52.066Z,80.70
2019-02-17T17:24:48.009Z,81.20
2019-02-17T17:27:15.058Z,84.50
2019-02-17T17:29:42.205Z,72.00
2019-02-17T17:34:36.200Z,70.50
2019-02-17T17:37:04.888Z,71.70
2019-02-17T17:39:31.728Z,74.10
2019-02-17T17:42:00.416Z,77.10
2019-02-17T17:44:38.626Z,75.00
2019-02-17T17:49:32.926Z,75.10
2019-02-17T17:54:28.763Z,79.20
2019-02-17T17:56:55.609Z,80.10
2019-02-17T17:59:23.065Z,82.80
2019-02-17T18:01:49.908Z,84.40
2019-02-17T18:04:16.756Z,85.50
2019-02-17T18:06:43.904Z,87.90
2019-02-17T18:09:11.976Z,88.70
2019-02-17T18:11:39.231Z,85.90
2019-02-17T18:14:06.278Z,85.80
2019-02-17T18:16:36.807Z,85.60
2019-02-17T19:17:58.334Z,86.10
2019-02-17T19:20:27.502Z,96.10
2019-02-17T19:22:54.479Z,95.30
2019-02-17T19:25:21.322Z,96.10
2019-02-17T19:27:48.473Z,96.50
2019-02-17T19:30:15.316Z,95.10
2019-02-17T19:32:42.160Z,95.50
2019-02-17T19:35:11.470Z,95.00
2019-02-17T19:37:38.322Z,95.60
2019-02-17T19:49:55.593Z,95.10
2019-02-17T19:52:22.447Z,96.50
2019-02-17T19:54:49.585Z,98.40
2019-02-17T19:57:16.429Z,97.30
2019-02-17T19:59:43.274Z,98.20
2019-02-17T20:02:10.423Z,98.10
2019-02-17T20:04:39.112Z,98.20
2019-02-17T20:07:05.954Z,97.30
2019-02-17T20:09:32.797Z,97.60
2019-02-17T20:11:59.947Z,98.70
2019-02-17T20:14:27.099Z,98.70
2019-02-17T20:16:54.251Z,98.90
2019-02-17T20:19:21.400Z,99.10
2019-02-17T20:21:48.243Z,99.20
2019-02-17T21:05:59.106Z,99.50
2019-02-17T21:13:20.572Z,99.90
2019-02-17T21:15:48.320Z,99.90
2019-02-17T21:18:15.212Z,99.90
2019-02-17T21:20:42.312Z,99.90
2019-02-17T21:23:09.470Z,99.90
2019-02-17T21:25:36.626Z,99.90
2019-02-17T21:28:03.467Z,99.90
2019-02-17T21:30:30.612Z,99.90
2019-02-17T21:32:57.760Z,99.90
2019-02-17T21:35:24.615Z,99.90
2019-02-17T21:37:52.800Z,99.90
2019-02-17T21:40:19.824Z,99.90
2019-02-17T21:42:46.671Z,99.90
2019-02-17T21:45:14.700Z,99.90
2019-02-17T21:47:41.641Z,99.90
2019-02-17T21:50:11.500Z,99.90
2019-02-17T21:52:38.452Z,99.90
2019-02-17T21:55:07.542Z,99.90
2019-02-17T21:57:34.486Z,99.90
2019-02-17T22:00:01.636Z,99.90
2019-02-17T22:02:28.480Z,99.90
2019-02-17T22:04:55.369Z,99.90
2019-02-17T22:07:22.217Z,99.90
2019-02-17T22:09:49.323Z,99.90
2019-02-17T22:12:16.506Z,99.90
2019-02-17T22:14:43.619Z,99.90
2019-02-17T22:17:10.480Z,99.90
2019-02-17T22:19:39.327Z,99.90
2019-02-17T22:22:05.996Z,99.90
2019-02-17T22:24:33.146Z,99.90
2019-02-17T22:27:00.295Z,99.90
2019-02-17T22:29:27.185Z,99.90
2019-02-17T22:31:54.287Z,99.90
2019-02-17T22:34:21.441Z,99.90
2019-02-17T22:36:48.282Z,99.90
2019-02-17T22:39:15.124Z,99.90
2019-02-17T22:41:42.277Z,99.90
2019-02-17T22:44:09.119Z,99.90
2019-02-17T22:46:36.268Z,99.90
2019-02-17T22:49:02.854Z,99.90
2019-02-17T22:51:29.389Z,99.90
2019-02-17T22:53:56.186Z,99.90
2019-02-17T22:56:23.027Z,99.90
